sensor_id;sensor_type;location;lat;lon;timestamp;pressure;altitude;pressure_sealevel;temperature;humidity
32324;BME280;25666;44.350;9.222;2023-10-09T00:00:51;102503.75;;;18.03;100.00
32324;BME280;25666;44.350;9.222;2023-10-09T00:03:21;102498.22;;;18.07;100.00
32324;BME280;25666;44.350;9.222;2023-10-09T00:05:50;102500.94;;;18.03;100.00
32324;BME280;25666;44.350;9.222;2023-10-09T00:08:19;102501.53;;;17.97;100.00
32324;BME280;25666;44.350;9.222;2023-10-09T00:10:52;102497.19;;;17.99;100.00
32324;BME280;25666;44.350;9.222;2023-10-09T00:13:23;102492.00;;;18.01;100.00
32324;BME280;25666;44.350;9.222;2023-10-09T00:15:54;102508.19;;;18.04;100.00
32324;BME280;25666;44.350;9.222;2023-10-09T00:18:24;102497.28;;;18.03;100.00
32324;BME280;25666;44.350;9.222;2023-10-09T00:20:58;102490.22;;;18.09;100.00
32324;BME280;25666;44.350;9.222;2023-10-09T00:23:27;102502.50;;;18.16;100.00
32324;BME280;25666;44.350;9.222;2023-10-09T00:25:53;102494.78;;;18.13;100.00
32324;BME280;25666;44.350;9.222;2023-10-09T00:28:38;102502.91;;;18.03;100.00
32324;BME280;25666;44.350;9.222;2023-10-09T00:31:06;102498.09;;;18.03;100.00
32324;BME280;25666;44.350;9.222;2023-10-09T00:33:36;102499.00;;;18.07;100.00
32324;BME280;25666;44.350;9.222;2023-10-09T00:36:03;102488.47;;;18.04;100.00
32324;BME280;25666;44.350;9.222;2023-10-09T00:38:38;102487.84;;;18.11;100.00
32324;BME280;25666;44.350;9.222;2023-10-09T00:41:30;102494.56;;;18.06;100.00
32324;BME280;25666;44.350;9.222;2023-10-09T00:44:00;102491.38;;;18.08;100.00
32324;BME280;25666;44.350;9.222;2023-10-09T00:46:27;102486.84;;;18.03;100.00
32324;BME280;25666;44.350;9.222;2023-10-09T00:48:57;102487.66;;;18.04;100.00
32324;BME280;25666;44.350;9.222;2023-10-09T00:51:27;102486.47;;;18.05;100.00
32324;BME280;25666;44.350;9.222;2023-10-09T00:54:01;102490.56;;;18.07;100.00
32324;BME280;25666;44.350;9.222;2023-10-09T00:56:40;102488.56;;;18.08;100.00
32324;BME280;25666;44.350;9.222;2023-10-09T00:59:10;102481.38;;;17.95;100.00
32324;BME280;25666;44.350;9.222;2023-10-09T01:01:45;102481.38;;;17.95;100.00
32324;BME280;25666;44.350;9.222;2023-10-09T01:04:34;102484.41;;;17.90;100.00
32324;BME280;25666;44.350;9.222;2023-10-09T01:07:06;102487.22;;;17.90;100.00
32324;BME280;25666;44.350;9.222;2023-10-09T01:09:42;102479.94;;;17.89;100.00
32324;BME280;25666;44.350;9.222;2023-10-09T01:12:11;102491.31;;;17.92;100.00
32324;BME280;25666;44.350;9.222;2023-10-09T01:14:45;102473.97;;;17.90;100.00
32324;BME280;25666;44.350;9.222;2023-10-09T01:17:11;102478.06;;;17.93;100.00
32324;BME280;25666;44.350;9.222;2023-10-09T01:19:43;102475.72;;;17.95;100.00
32324;BME280;25666;44.350;9.222;2023-10-09T01:22:10;102480.28;;;17.99;100.00
32324;BME280;25666;44.350;9.222;2023-10-09T01:24:39;102478.88;;;17.93;100.00
32324;BME280;25666;44.350;9.222;2023-10-09T01:27:08;102469.16;;;17.91;100.00
32324;BME280;25666;44.350;9.222;2023-10-09T01:29:40;102465.41;;;17.87;100.00
32324;BME280;25666;44.350;9.222;2023-10-09T01:32:07;102472.22;;;17.86;100.00
32324;BME280;25666;44.350;9.222;2023-10-09T01:34:35;102476.22;;;17.85;100.00
32324;BME280;25666;44.350;9.222;2023-10-09T01:37:13;102468.94;;;17.84;100.00
32324;BME280;25666;44.350;9.222;2023-10-09T01:39:49;102471.50;;;17.89;100.00
32324;BME280;25666;44.350;9.222;2023-10-09T01:42:16;102478.78;;;17.90;100.00
32324;BME280;25666;44.350;9.222;2023-10-09T01:45:01;102473.41;;;17.85;100.00
32324;BME280;25666;44.350;9.222;2023-10-09T01:47:41;102478.84;;;17.78;100.00
32324;BME280;25666;44.350;9.222;2023-10-09T01:50:11;102476.34;;;17.76;100.00
32324;BME280;25666;44.350;9.222;2023-10-09T01:52:44;102479.09;;;17.73;100.00
32324;BME280;25666;44.350;9.222;2023-10-09T01:55:10;102484.13;;;17.79;100.00
32324;BME280;25666;44.350;9.222;2023-10-09T01:57:40;102476.13;;;17.81;100.00
32324;BME280;25666;44.350;9.222;2023-10-09T02:00:10;102483.41;;;17.70;100.00
32324;BME280;25666;44.350;9.222;2023-10-09T02:02:48;102480.53;;;17.67;100.00
32324;BME280;25666;44.350;9.222;2023-10-09T02:05:15;102488.25;;;17.70;100.00
32324;BME280;25666;44.350;9.222;2023-10-09T02:07:42;102492.13;;;17.65;100.00
32324;BME280;25666;44.350;9.222;2023-10-09T02:10:20;102486.88;;;17.63;100.00
32324;BME280;25666;44.350;9.222;2023-10-09T02:13:00;102484.72;;;17.73;100.00
32324;BME280;25666;44.350;9.222;2023-10-09T02:15:34;102487.06;;;17.71;100.00
32324;BME280;25666;44.350;9.222;2023-10-09T02:18:11;102489.06;;;17.70;100.00
32324;BME280;25666;44.350;9.222;2023-10-09T02:20:45;102488.09;;;17.78;100.00
32324;BME280;25666;44.350;9.222;2023-10-09T02:23:12;102488.50;;;17.64;100.00
32324;BME280;25666;44.350;9.222;2023-10-09T02:25:49;102486.94;;;17.67;100.00
32324;BME280;25666;44.350;9.222;2023-10-09T02:28:18;102482.97;;;17.68;100.00
32324;BME280;25666;44.350;9.222;2023-10-09T02:30:45;102481.13;;;17.60;100.00
32324;BME280;25666;44.350;9.222;2023-10-09T02:33:17;102491.56;;;17.47;100.00
32324;BME280;25666;44.350;9.222;2023-10-09T02:35:58;102496.38;;;17.59;100.00
32324;BME280;25666;44.350;9.222;2023-10-09T02:38:31;102493.09;;;17.57;100.00
32324;BME280;25666;44.350;9.222;2023-10-09T02:41:00;102492.59;;;17.67;100.00
32324;BME280;25666;44.350;9.222;2023-10-09T02:43:29;102500.81;;;17.72;100.00
32324;BME280;25666;44.350;9.222;2023-10-09T02:46:06;102499.88;;;17.68;100.00
32324;BME280;25666;44.350;9.222;2023-10-09T02:48:49;102499.16;;;17.71;100.00
32324;BME280;25666;44.350;9.222;2023-10-09T02:51:25;102501.16;;;17.71;100.00
32324;BME280;25666;44.350;9.222;2023-10-09T02:53:55;102500.44;;;17.74;100.00
32324;BME280;25666;44.350;9.222;2023-10-09T02:56:22;102496.06;;;17.76;100.00
32324;BME280;25666;44.350;9.222;2023-10-09T02:59:04;102501.38;;;17.78;100.00
32324;BME280;25666;44.350;9.222;2023-10-09T03:01:40;102493.53;;;17.71;100.00
32324;BME280;25666;44.350;9.222;2023-10-09T03:04:06;102497.72;;;17.77;100.00
32324;BME280;25666;44.350;9.222;2023-10-09T03:06:33;102497.00;;;17.80;100.00
32324;BME280;25666;44.350;9.222;2023-10-09T03:09:03;102499.53;;;17.70;100.00
32324;BME280;25666;44.350;9.222;2023-10-09T03:11:50;102496.78;;;17.73;100.00
32324;BME280;25666;44.350;9.222;2023-10-09T03:14:22;102495.41;;;17.67;100.00
32324;BME280;25666;44.350;9.222;2023-10-09T03:16:52;102496.34;;;17.71;100.00
32324;BME280;25666;44.350;9.222;2023-10-09T03:19:17;102506.31;;;17.69;100.00
32324;BME280;25666;44.350;9.222;2023-10-09T03:21:43;102504.38;;;17.57;100.00
32324;BME280;25666;44.350;9.222;2023-10-09T03:24:09;102494.84;;;17.61;100.00
32324;BME280;25666;44.350;9.222;2023-10-09T03:26:36;102504.34;;;17.69;100.00
32324;BME280;25666;44.350;9.222;2023-10-09T03:29:02;102502.34;;;17.70;100.00
32324;BME280;25666;44.350;9.222;2023-10-09T03:31:32;102504.56;;;17.64;100.00
32324;BME280;25666;44.350;9.222;2023-10-09T03:33:59;102502.22;;;17.66;100.00
32324;BME280;25666;44.350;9.222;2023-10-09T03:36:25;102498.59;;;17.65;100.00
32324;BME280;25666;44.350;9.222;2023-10-09T03:38:54;102497.44;;;17.67;100.00
32324;BME280;25666;44.350;9.222;2023-10-09T03:41:21;102498.44;;;17.74;100.00
32324;BME280;25666;44.350;9.222;2023-10-09T03:43:46;102491.63;;;17.75;100.00
32324;BME280;25666;44.350;9.222;2023-10-09T03:46:12;102503.84;;;17.67;100.00
32324;BME280;25666;44.350;9.222;2023-10-09T03:48:50;102500.81;;;17.72;100.00
32324;BME280;25666;44.350;9.222;2023-10-09T03:51:22;102501.84;;;17.67;100.00
32324;BME280;25666;44.350;9.222;2023-10-09T03:53:49;102491.78;;;17.67;100.00
32324;BME280;25666;44.350;9.222;2023-10-09T03:56:16;102494.22;;;17.68;100.00
32324;BME280;25666;44.350;9.222;2023-10-09T03:58:47;102498.09;;;17.76;100.00
32324;BME280;25666;44.350;9.222;2023-10-09T04:01:16;102496.19;;;17.80;100.00
32324;BME280;25666;44.350;9.222;2023-10-09T04:03:51;102498.06;;;17.88;100.00
32324;BME280;25666;44.350;9.222;2023-10-09T04:06:27;102495.06;;;17.96;100.00
32324;BME280;25666;44.350;9.222;2023-10-09T04:09:00;102490.25;;;17.97;100.00
32324;BME280;25666;44.350;9.222;2023-10-09T04:11:39;102491.66;;;18.03;100.00
32324;BME280;25666;44.350;9.222;2023-10-09T04:14:08;102498.94;;;18.04;100.00
32324;BME280;25666;44.350;9.222;2023-10-09T04:16:37;102488.94;;;18.06;100.00
32324;BME280;25666;44.350;9.222;2023-10-09T04:19:16;102500.41;;;18.13;100.00
32324;BME280;25666;44.350;9.222;2023-10-09T04:21:48;102507.00;;;18.05;100.00
32324;BME280;25666;44.350;9.222;2023-10-09T04:24:14;102492.69;;;18.10;100.00
32324;BME280;25666;44.350;9.222;2023-10-09T04:26:41;102499.31;;;18.18;100.00
32324;BME280;25666;44.350;9.222;2023-10-09T04:29:14;102499.88;;;18.24;100.00
32324;BME280;25666;44.350;9.222;2023-10-09T04:31:56;102505.38;;;18.32;100.00
32324;BME280;25666;44.350;9.222;2023-10-09T04:34:25;102505.28;;;18.29;100.00
32324;BME280;25666;44.350;9.222;2023-10-09T04:37:00;102500.81;;;18.28;100.00
32324;BME280;25666;44.350;9.222;2023-10-09T04:39:29;102502.34;;;18.25;100.00
32324;BME280;25666;44.350;9.222;2023-10-09T04:41:55;102506.34;;;18.24;100.00
32324;BME280;25666;44.350;9.222;2023-10-09T04:44:41;102511.00;;;18.32;100.00
32324;BME280;25666;44.350;9.222;2023-10-09T04:47:26;102508.19;;;18.32;100.00
32324;BME280;25666;44.350;9.222;2023-10-09T04:50:11;102504.16;;;18.33;100.00
32324;BME280;25666;44.350;9.222;2023-10-09T04:52:39;102513.56;;;18.37;100.00
32324;BME280;25666;44.350;9.222;2023-10-09T04:55:06;102510.13;;;18.44;100.00
32324;BME280;25666;44.350;9.222;2023-10-09T04:57:39;102509.84;;;18.49;100.00
32324;BME280;25666;44.350;9.222;2023-10-09T05:02:56;102518.53;;;18.56;100.00
32324;BME280;25666;44.350;9.222;2023-10-09T05:05:27;102516.06;;;18.54;100.00
32324;BME280;25666;44.350;9.222;2023-10-09T05:08:13;102520.28;;;18.60;100.00
32324;BME280;25666;44.350;9.222;2023-10-09T05:10:52;102517.06;;;18.62;100.00
32324;BME280;25666;44.350;9.222;2023-10-09T05:16:14;102517.72;;;18.71;100.00
32324;BME280;25666;44.350;9.222;2023-10-09T05:18:55;102516.16;;;18.73;100.00
32324;BME280;25666;44.350;9.222;2023-10-09T05:21:33;102516.38;;;18.81;100.00
32324;BME280;25666;44.350;9.222;2023-10-09T05:23:59;102519.28;;;18.84;100.00
32324;BME280;25666;44.350;9.222;2023-10-09T05:26:38;102520.56;;;18.87;100.00
32324;BME280;25666;44.350;9.222;2023-10-09T05:29:19;102521.38;;;18.87;100.00
32324;BME280;25666;44.350;9.222;2023-10-09T05:31:50;102523.03;;;18.88;100.00
32324;BME280;25666;44.350;9.222;2023-10-09T05:34:24;102529.50;;;18.89;100.00
32324;BME280;25666;44.350;9.222;2023-10-09T05:37:08;102525.22;;;18.95;100.00
32324;BME280;25666;44.350;9.222;2023-10-09T05:39:46;102524.09;;;18.99;100.00
32324;BME280;25666;44.350;9.222;2023-10-09T05:42:34;102532.66;;;19.03;100.00
32324;BME280;25666;44.350;9.222;2023-10-09T05:45:04;102539.31;;;19.10;100.00
32324;BME280;25666;44.350;9.222;2023-10-09T05:50:31;102538.09;;;19.11;100.00
32324;BME280;25666;44.350;9.222;2023-10-09T05:53:01;102540.19;;;19.14;100.00
32324;BME280;25666;44.350;9.222;2023-10-09T05:55:28;102545.13;;;19.17;100.00
32324;BME280;25666;44.350;9.222;2023-10-09T05:58:13;102542.38;;;19.21;100.00
32324;BME280;25666;44.350;9.222;2023-10-09T06:00:44;102546.47;;;19.23;100.00
32324;BME280;25666;44.350;9.222;2023-10-09T06:03:28;102545.09;;;19.33;100.00
32324;BME280;25666;44.350;9.222;2023-10-09T06:06:14;102551.66;;;19.37;100.00
32324;BME280;25666;44.350;9.222;2023-10-09T06:09:02;102552.31;;;19.46;100.00
32324;BME280;25666;44.350;9.222;2023-10-09T06:11:40;102557.31;;;19.53;100.00
32324;BME280;25666;44.350;9.222;2023-10-09T06:14:07;102561.47;;;19.59;100.00
32324;BME280;25666;44.350;9.222;2023-10-09T06:16:36;102563.31;;;19.67;100.00
32324;BME280;25666;44.350;9.222;2023-10-09T06:19:13;102557.88;;;19.77;100.00
32324;BME280;25666;44.350;9.222;2023-10-09T06:21:59;102567.03;;;19.90;100.00
32324;BME280;25666;44.350;9.222;2023-10-09T06:24:47;102557.25;;;20.03;100.00
32324;BME280;25666;44.350;9.222;2023-10-09T06:27:18;102559.31;;;20.06;100.00
32324;BME280;25666;44.350;9.222;2023-10-09T06:29:57;102553.66;;;20.06;100.00
32324;BME280;25666;44.350;9.222;2023-10-09T06:32:42;102560.66;;;20.12;100.00
32324;BME280;25666;44.350;9.222;2023-10-09T06:35:28;102552.69;;;20.18;100.00
32324;BME280;25666;44.350;9.222;2023-10-09T06:38:00;102561.56;;;20.16;100.00
32324;BME280;25666;44.350;9.222;2023-10-09T06:40:35;102558.97;;;20.27;100.00
32324;BME280;25666;44.350;9.222;2023-10-09T06:43:20;102557.03;;;20.31;100.00
32324;BME280;25666;44.350;9.222;2023-10-09T06:45:50;102554.72;;;20.37;100.00
32324;BME280;25666;44.350;9.222;2023-10-09T06:48:34;102553.31;;;20.27;100.00
32324;BME280;25666;44.350;9.222;2023-10-09T06:51:09;102559.69;;;20.24;100.00
32324;BME280;25666;44.350;9.222;2023-10-09T06:53:39;102558.63;;;20.28;100.00
32324;BME280;25666;44.350;9.222;2023-10-09T06:56:21;102564.19;;;20.44;100.00
32324;BME280;25666;44.350;9.222;2023-10-09T06:59:00;102571.91;;;20.47;100.00
32324;BME280;25666;44.350;9.222;2023-10-09T07:01:46;102564.25;;;20.48;100.00
32324;BME280;25666;44.350;9.222;2023-10-09T07:04:16;102560.38;;;20.56;100.00
32324;BME280;25666;44.350;9.222;2023-10-09T07:07:05;102563.66;;;20.58;100.00
32324;BME280;25666;44.350;9.222;2023-10-09T07:09:38;102560.38;;;20.56;100.00
32324;BME280;25666;44.350;9.222;2023-10-09T07:12:32;102561.19;;;20.56;100.00
32324;BME280;25666;44.350;9.222;2023-10-09T07:15:01;102566.47;;;20.58;100.00
32324;BME280;25666;44.350;9.222;2023-10-09T07:17:47;102573.34;;;20.38;100.00
32324;BME280;25666;44.350;9.222;2023-10-09T07:20:12;102573.19;;;20.30;100.00
32324;BME280;25666;44.350;9.222;2023-10-09T07:23:01;102568.94;;;20.40;100.00
32324;BME280;25666;44.350;9.222;2023-10-09T07:25:43;102569.59;;;20.53;100.00
32324;BME280;25666;44.350;9.222;2023-10-09T07:28:21;102575.72;;;20.55;100.00
32324;BME280;25666;44.350;9.222;2023-10-09T07:30:56;102568.50;;;20.57;100.00
32324;BME280;25666;44.350;9.222;2023-10-09T07:33:23;102573.00;;;20.62;100.00
32324;BME280;25666;44.350;9.222;2023-10-09T07:36:01;102575.56;;;20.67;100.00
32324;BME280;25666;44.350;9.222;2023-10-09T07:38:33;102572.66;;;20.63;100.00
32324;BME280;25666;44.350;9.222;2023-10-09T07:41:02;102575.97;;;20.69;100.00
32324;BME280;25666;44.350;9.222;2023-10-09T07:43:38;102578.88;;;20.72;100.00
32324;BME280;25666;44.350;9.222;2023-10-09T07:46:11;102573.72;;;20.78;100.00
32324;BME280;25666;44.350;9.222;2023-10-09T07:48:56;102570.81;;;20.74;100.00
32324;BME280;25666;44.350;9.222;2023-10-09T07:51:23;102572.91;;;20.77;100.00
32324;BME280;25666;44.350;9.222;2023-10-09T07:53:56;102575.66;;;20.74;100.00
32324;BME280;25666;44.350;9.222;2023-10-09T07:56:34;102576.56;;;20.78;100.00
32324;BME280;25666;44.350;9.222;2023-10-09T07:59:13;102572.91;;;20.77;100.00
32324;BME280;25666;44.350;9.222;2023-10-09T08:01:57;102570.47;;;20.76;100.00
32324;BME280;25666;44.350;9.222;2023-10-09T08:04:28;102579.53;;;20.85;100.00
32324;BME280;25666;44.350;9.222;2023-10-09T08:07:09;102573.19;;;20.92;100.00
32324;BME280;25666;44.350;9.222;2023-10-09T08:09:36;102572.50;;;20.98;100.00
32324;BME280;25666;44.350;9.222;2023-10-09T08:12:12;102570.69;;;21.09;100.00
32324;BME280;25666;44.350;9.222;2023-10-09T08:15:02;102576.84;;;21.15;100.00
32324;BME280;25666;44.350;9.222;2023-10-09T08:17:39;102578.41;;;21.12;100.00
32324;BME280;25666;44.350;9.222;2023-10-09T08:20:05;102574.06;;;21.18;100.00
32324;BME280;25666;44.350;9.222;2023-10-09T08:22:37;102570.13;;;21.23;100.00
32324;BME280;25666;44.350;9.222;2023-10-09T08:25:12;102575.50;;;21.31;100.00
32324;BME280;25666;44.350;9.222;2023-10-09T08:27:58;102574.47;;;21.43;100.00
32324;BME280;25666;44.350;9.222;2023-10-09T08:30:44;102572.59;;;21.51;100.00
32324;BME280;25666;44.350;9.222;2023-10-09T08:33:16;102569.75;;;21.51;100.00
32324;BME280;25666;44.350;9.222;2023-10-09T08:35:54;102577.09;;;21.55;100.00
32324;BME280;25666;44.350;9.222;2023-10-09T08:38:30;102566.63;;;21.59;100.00
32324;BME280;25666;44.350;9.222;2023-10-09T08:41:12;102567.81;;;21.58;100.00
32324;BME280;25666;44.350;9.222;2023-10-09T08:43:48;102568.66;;;21.59;100.00
32324;BME280;25666;44.350;9.222;2023-10-09T08:46:22;102560.19;;;21.62;100.00
32324;BME280;25666;44.350;9.222;2023-10-09T08:48:48;102563.91;;;21.66;100.00
32324;BME280;25666;44.350;9.222;2023-10-09T08:51:14;102575.72;;;21.72;100.00
32324;BME280;25666;44.350;9.222;2023-10-09T08:53:40;102570.84;;;21.69;100.00
32324;BME280;25666;44.350;9.222;2023-10-09T08:56:14;102567.16;;;21.68;100.00
32324;BME280;25666;44.350;9.222;2023-10-09T08:58:58;102578.09;;;21.66;100.00
32324;BME280;25666;44.350;9.222;2023-10-09T09:01:25;102566.53;;;21.78;100.00
32324;BME280;25666;44.350;9.222;2023-10-09T09:03:52;102568.53;;;21.78;100.00
32324;BME280;25666;44.350;9.222;2023-10-09T09:06:21;102574.59;;;21.76;100.00
32324;BME280;25666;44.350;9.222;2023-10-09T09:08:49;102566.75;;;21.66;100.00
32324;BME280;25666;44.350;9.222;2023-10-09T09:11:20;102572.00;;;21.64;100.00
32324;BME280;25666;44.350;9.222;2023-10-09T09:14:02;102563.91;;;21.66;100.00
32324;BME280;25666;44.350;9.222;2023-10-09T09:16:30;102558.34;;;21.73;100.00
32324;BME280;25666;44.350;9.222;2023-10-09T09:19:01;102566.47;;;21.75;100.00
32324;BME280;25666;44.350;9.222;2023-10-09T09:21:47;102562.81;;;21.74;100.00
32324;BME280;25666;44.350;9.222;2023-10-09T09:24:14;102563.69;;;21.78;100.00
32324;BME280;25666;44.350;9.222;2023-10-09T09:26:50;102556.00;;;21.79;100.00
32324;BME280;25666;44.350;9.222;2023-10-09T09:32:03;102550.69;;;21.74;100.00
32324;BME280;25666;44.350;9.222;2023-10-09T09:34:46;102553.81;;;21.69;100.00
32324;BME280;25666;44.350;9.222;2023-10-09T09:37:19;102562.31;;;21.69;100.00
32324;BME280;25666;44.350;9.222;2023-10-09T09:39:46;102547.34;;;21.68;100.00
32324;BME280;25666;44.350;9.222;2023-10-09T09:42:17;102555.53;;;21.73;100.00
32324;BME280;25666;44.350;9.222;2023-10-09T09:44:44;102558.78;;;21.75;100.00
32324;BME280;25666;44.350;9.222;2023-10-09T09:47:13;102557.13;;;21.74;100.00
32324;BME280;25666;44.350;9.222;2023-10-09T09:49:50;102551.88;;;21.73;100.00
32324;BME280;25666;44.350;9.222;2023-10-09T09:52:16;102551.97;;;21.80;100.00
32324;BME280;25666;44.350;9.222;2023-10-09T09:54:43;102552.78;;;21.80;100.00
32324;BME280;25666;44.350;9.222;2023-10-09T09:57:12;102545.97;;;21.85;100.00
32324;BME280;25666;44.350;9.222;2023-10-09T09:59:40;102547.09;;;21.80;100.00
32324;BME280;25666;44.350;9.222;2023-10-09T10:02:35;102543.13;;;21.85;100.00
32324;BME280;25666;44.350;9.222;2023-10-09T10:05:06;102545.91;;;21.81;100.00
32324;BME280;25666;44.350;9.222;2023-10-09T10:07:34;102552.78;;;21.80;100.00
32324;BME280;25666;44.350;9.222;2023-10-09T10:10:40;102541.81;;;21.79;100.00
32324;BME280;25666;44.350;9.222;2023-10-09T10:16:09;102543.03;;;21.78;100.00
32324;BME280;25666;44.350;9.222;2023-10-09T10:19:03;102543.47;;;21.80;100.00
32324;BME280;25666;44.350;9.222;2023-10-09T10:21:35;102536.59;;;21.81;100.00
32324;BME280;25666;44.350;9.222;2023-10-09T10:32:55;102532.75;;;21.93;100.00
32324;BME280;25666;44.350;9.222;2023-10-09T10:35:23;102531.47;;;21.90;100.00
32324;BME280;25666;44.350;9.222;2023-10-09T10:38:01;102532.00;;;21.99;100.00
32324;BME280;25666;44.350;9.222;2023-10-09T10:40:40;102522.97;;;21.90;100.00
32324;BME280;25666;44.350;9.222;2023-10-09T10:43:18;102521.00;;;21.94;100.00
32324;BME280;25666;44.350;9.222;2023-10-09T10:46:13;102511.72;;;21.97;100.00
32324;BME280;25666;44.350;9.222;2023-10-09T10:48:59;102512.13;;;21.99;100.00
32324;BME280;25666;44.350;9.222;2023-10-09T10:51:26;102512.63;;;22.05;100.00
32324;BME280;25666;44.350;9.222;2023-10-09T10:54:01;102506.25;;;22.11;100.00
32324;BME280;25666;44.350;9.222;2023-10-09T10:56:47;102501.34;;;22.08;100.00
32324;BME280;25666;44.350;9.222;2023-10-09T10:59:13;102503.00;;;22.13;100.00
32324;BME280;25666;44.350;9.222;2023-10-09T11:01:39;102493.63;;;22.09;100.00
32324;BME280;25666;44.350;9.222;2023-10-09T11:04:17;102506.25;;;22.11;100.00
32324;BME280;25666;44.350;9.222;2023-10-09T11:07:03;102487.16;;;22.08;100.00
32324;BME280;25666;44.350;9.222;2023-10-09T11:09:51;102479.75;;;22.00;100.00
32324;BME280;25666;44.350;9.222;2023-10-09T11:12:43;102486.34;;;22.08;100.00
32324;BME280;25666;44.350;9.222;2023-10-09T11:15:33;102486.34;;;22.08;100.00
32324;BME280;25666;44.350;9.222;2023-10-09T11:18:23;102486.72;;;22.06;100.00
32324;BME280;25666;44.350;9.222;2023-10-09T11:20:56;102476.22;;;22.10;100.00
32324;BME280;25666;44.350;9.222;2023-10-09T11:23:42;102478.72;;;22.15;100.00
32324;BME280;25666;44.350;9.222;2023-10-09T11:26:17;102476.31;;;22.17;100.00
32324;BME280;25666;44.350;9.222;2023-10-09T11:32:05;102461.81;;;22.26;100.00
32324;BME280;25666;44.350;9.222;2023-10-09T11:34:32;102451.72;;;22.28;100.00
32324;BME280;25666;44.350;9.222;2023-10-09T11:37:12;102451.66;;;22.25;100.00
32324;BME280;25666;44.350;9.222;2023-10-09T11:39:38;102450.41;;;22.19;100.00
32324;BME280;25666;44.350;9.222;2023-10-09T11:42:18;102449.50;;;22.11;100.00
32324;BME280;25666;44.350;9.222;2023-10-09T11:45:02;102444.75;;;22.22;100.00
32324;BME280;25666;44.350;9.222;2023-10-09T11:47:36;102439.53;;;22.28;100.00
32324;BME280;25666;44.350;9.222;2023-10-09T11:50:11;102444.06;;;22.32;100.00
32324;BME280;25666;44.350;9.222;2023-10-09T11:52:56;102441.56;;;22.27;100.00
32324;BME280;25666;44.350;9.222;2023-10-09T11:55:35;102426.09;;;22.21;100.00
32324;BME280;25666;44.350;9.222;2023-10-09T11:58:02;102427.69;;;22.19;100.00
32324;BME280;25666;44.350;9.222;2023-10-09T12:00:31;102426.09;;;22.21;100.00
32324;BME280;25666;44.350;9.222;2023-10-09T12:03:08;102420.06;;;22.23;100.00
32324;BME280;25666;44.350;9.222;2023-10-09T12:05:34;102417.25;;;22.26;100.00
32324;BME280;25666;44.350;9.222;2023-10-09T12:08:00;102424.13;;;22.25;100.00
32324;BME280;25666;44.350;9.222;2023-10-09T12:10:27;102414.34;;;22.19;100.00
32324;BME280;25666;44.350;9.222;2023-10-09T12:12:53;102409.53;;;22.23;100.00
32324;BME280;25666;44.350;9.222;2023-10-09T12:15:19;102404.22;;;22.22;100.00
32324;BME280;25666;44.350;9.222;2023-10-09T12:17:46;102396.56;;;22.26;100.00
32324;BME280;25666;44.350;9.222;2023-10-09T12:20:14;102398.59;;;22.25;100.00
32324;BME280;25666;44.350;9.222;2023-10-09T12:22:56;102390.91;;;22.26;100.00
32324;BME280;25666;44.350;9.222;2023-10-09T12:25:23;102385.25;;;22.29;100.00
32324;BME280;25666;44.350;9.222;2023-10-09T12:27:49;102392.88;;;22.22;100.00
32324;BME280;25666;44.350;9.222;2023-10-09T12:30:14;102390.09;;;22.25;100.00
32324;BME280;25666;44.350;9.222;2023-10-09T12:32:40;102392.09;;;22.25;100.00
32324;BME280;25666;44.350;9.222;2023-10-09T12:35:06;102388.53;;;22.31;100.00
32324;BME280;25666;44.350;9.222;2023-10-09T12:37:43;102376.34;;;22.31;100.00
32324;BME280;25666;44.350;9.222;2023-10-09T12:40:09;102388.47;;;22.28;100.00
32324;BME280;25666;44.350;9.222;2023-10-09T12:42:36;102380.38;;;22.26;100.00
32324;BME280;25666;44.350;9.222;2023-10-09T12:45:03;102379.94;;;22.24;100.00
32324;BME280;25666;44.350;9.222;2023-10-09T12:47:36;102377.94;;;22.28;100.00
32324;BME280;25666;44.350;9.222;2023-10-09T12:50:07;102376.34;;;22.31;100.00
32324;BME280;25666;44.350;9.222;2023-10-09T12:52:39;102375.13;;;22.28;100.00
32324;BME280;25666;44.350;9.222;2023-10-09T12:55:05;102371.47;;;22.28;100.00
32324;BME280;25666;44.350;9.222;2023-10-09T12:57:33;102367.50;;;22.36;100.00
32324;BME280;25666;44.350;9.222;2023-10-09T12:59:59;102363.06;;;22.38;100.00
32324;BME280;25666;44.350;9.222;2023-10-09T13:02:24;102363.84;;;22.35;100.00
32324;BME280;25666;44.350;9.222;2023-10-09T13:04:57;102365.44;;;22.33;100.00
32324;BME280;25666;44.350;9.222;2023-10-09T13:07:23;102371.94;;;22.37;100.00
32324;BME280;25666;44.350;9.222;2023-10-09T13:09:49;102365.47;;;22.36;100.00
32324;BME280;25666;44.350;9.222;2023-10-09T13:12:36;102369.06;;;22.33;100.00
32324;BME280;25666;44.350;9.222;2023-10-09T13:15:09;102361.38;;;22.34;100.00
32324;BME280;25666;44.350;9.222;2023-10-09T13:17:35;102357.75;;;22.37;100.00
32324;BME280;25666;44.350;9.222;2023-10-09T13:20:02;102360.59;;;22.37;100.00
32324;BME280;25666;44.350;9.222;2023-10-09T13:22:41;102362.66;;;22.36;100.00
32324;BME280;25666;44.350;9.222;2023-10-09T13:25:11;102356.19;;;22.39;100.00
32324;BME280;25666;44.350;9.222;2023-10-09T13:27:50;102349.72;;;22.42;100.00
32324;BME280;25666;44.350;9.222;2023-10-09T13:30:19;102351.75;;;22.42;100.00
32324;BME280;25666;44.350;9.222;2023-10-09T13:32:49;102342.78;;;22.36;100.00
32324;BME280;25666;44.350;9.222;2023-10-09T13:35:17;102342.34;;;22.34;100.00
32324;BME280;25666;44.350;9.222;2023-10-09T13:37:44;102338.66;;;22.27;100.00
32324;BME280;25666;44.350;9.222;2023-10-09T13:40:13;102340.25;;;22.28;100.00